createdAt,value
2022-10-14T00:01:19.085Z,9.10
2022-10-14T00:03:47.319Z,9.00
2022-10-14T00:06:19.693Z,9.00
2022-10-14T00:08:48.455Z,9.00
2022-10-14T00:11:18.774Z,9.00
2022-10-14T00:13:48.039Z,9.00
2022-10-14T00:16:18.874Z,9.00
2022-10-14T00:18:47.343Z,9.00
2022-10-14T00:21:17.809Z,9.00
2022-10-14T00:23:46.153Z,9.00
2022-10-14T00:26:19.734Z,9.10
2022-10-14T00:28:47.939Z,9.10
2022-10-14T00:31:17.274Z,9.10
2022-10-14T00:33:45.990Z,9.10
2022-10-14T00:36:18.067Z,9.10
2022-10-14T00:38:47.147Z,9.00
2022-10-14T00:41:17.571Z,9.00
2022-10-14T00:44:02.123Z,8.90
2022-10-14T00:46:32.250Z,8.80
2022-10-14T00:49:03.122Z,8.80
2022-10-14T00:51:33.508Z,8.70
2022-10-14T00:54:01.719Z,8.70
2022-10-14T00:56:31.549Z,8.70
2022-10-14T00:59:01.434Z,8.80
2022-10-14T01:01:29.894Z,8.80
2022-10-14T01:03:58.056Z,8.90
2022-10-14T01:06:42.321Z,9.10
2022-10-14T01:09:19.105Z,9.00
2022-10-14T01:12:23.542Z,9.00
2022-10-14T01:14:54.902Z,9.00
2022-10-14T01:17:35.829Z,8.90
2022-10-14T01:20:42.560Z,8.80
2022-10-14T01:23:41.317Z,8.70
2022-10-14T01:26:28.965Z,8.60
2022-10-14T01:29:12.798Z,8.60
2022-10-14T01:31:47.848Z,8.50
2022-10-14T01:34:22.582Z,8.40
2022-10-14T01:36:57.252Z,8.40
2022-10-14T01:39:31.262Z,8.40
2022-10-14T01:42:04.541Z,8.40
2022-10-14T01:44:36.714Z,8.30
2022-10-14T01:47:07.675Z,8.30
2022-10-14T01:49:38.541Z,8.30
2022-10-14T01:52:11.438Z,8.20
2022-10-14T01:54:42.912Z,8.10
2022-10-14T01:57:20.269Z,8.20
2022-10-14T01:59:49.295Z,8.10
2022-10-14T02:02:19.197Z,8.10
2022-10-14T02:04:47.523Z,8.10
2022-10-14T02:07:21.623Z,8.00
2022-10-14T02:09:57.703Z,7.90
2022-10-14T02:12:37.036Z,7.90
2022-10-14T02:15:11.931Z,7.90
2022-10-14T02:17:50.151Z,7.80
2022-10-14T02:20:26.522Z,7.80
2022-10-14T02:22:59.712Z,7.70
2022-10-14T02:25:31.310Z,7.60
2022-10-14T02:28:01.109Z,7.60
2022-10-14T02:30:32.276Z,7.60
2022-10-14T02:33:03.117Z,7.60
2022-10-14T02:35:32.810Z,7.60
2022-10-14T02:38:02.310Z,7.60
2022-10-14T02:40:37.060Z,7.60
2022-10-14T02:43:08.044Z,7.70
2022-10-14T02:45:36.351Z,7.60
2022-10-14T02:48:07.300Z,7.60
2022-10-14T02:50:35.779Z,7.60
2022-10-14T02:53:04.142Z,7.50
2022-10-14T02:55:32.618Z,7.40
2022-10-14T02:58:00.728Z,7.40
2022-10-14T03:00:29.297Z,7.40
2022-10-14T03:02:57.440Z,7.40
2022-10-14T03:05:26.938Z,7.50
2022-10-14T03:07:55.136Z,7.60
2022-10-14T03:10:23.336Z,7.60
2022-10-14T03:12:51.429Z,7.60
2022-10-14T03:15:19.737Z,7.70
2022-10-14T03:17:47.927Z,7.70
2022-10-14T03:20:16.129Z,7.70
2022-10-14T03:22:46.002Z,7.70
2022-10-14T03:25:14.368Z,7.70
2022-10-14T03:27:42.465Z,7.70
2022-10-14T03:30:11.523Z,7.70
2022-10-14T03:32:39.715Z,7.70
2022-10-14T03:35:08.966Z,7.70
2022-10-14T03:37:37.445Z,7.60
2022-10-14T03:40:08.554Z,7.70
2022-10-14T03:42:36.695Z,7.70
2022-10-14T03:45:05.708Z,7.70
2022-10-14T03:47:34.197Z,7.60
2022-10-14T03:50:03.073Z,7.60
2022-10-14T03:52:31.266Z,7.60
2022-10-14T03:54:59.531Z,7.60
2022-10-14T03:57:29.014Z,7.70
2022-10-14T03:59:57.519Z,7.60
2022-10-14T04:02:25.928Z,7.50
2022-10-14T04:04:58.398Z,7.50
2022-10-14T04:07:28.992Z,7.60
2022-10-14T04:09:57.318Z,7.50
2022-10-14T04:12:25.495Z,7.40
2022-10-14T04:14:56.950Z,7.30
2022-10-14T04:17:25.733Z,7.20
2022-10-14T04:19:54.382Z,7.10
2022-10-14T04:22:23.577Z,7.10
2022-10-14T04:24:52.062Z,7.00
2022-10-14T04:27:20.361Z,6.90
2022-10-14T04:29:49.058Z,6.80
2022-10-14T04:32:18.694Z,6.80
2022-10-14T04:34:47.283Z,6.70
2022-10-14T04:37:15.922Z,6.70
2022-10-14T04:39:44.042Z,6.60
2022-10-14T04:42:12.580Z,6.60
2022-10-14T04:44:41.046Z,6.60
2022-10-14T04:47:09.113Z,6.60
2022-10-14T04:49:38.939Z,6.50
2022-10-14T04:52:07.175Z,6.40
2022-10-14T04:54:35.259Z,6.30
2022-10-14T04:57:03.558Z,6.30
2022-10-14T04:59:32.005Z,6.30
2022-10-14T05:02:00.192Z,6.30
2022-10-14T05:04:28.821Z,6.30
2022-10-14T05:06:58.708Z,6.20
2022-10-14T05:09:27.001Z,6.20
2022-10-14T05:11:55.477Z,6.20
2022-10-14T05:14:23.920Z,6.10
2022-10-14T05:16:51.977Z,6.20
2022-10-14T05:19:20.429Z,6.10
2022-10-14T05:21:49.006Z,6.10
2022-10-14T05:24:19.882Z,6.00
2022-10-14T05:26:48.709Z,6.00
2022-10-14T05:29:17.221Z,6.00
2022-10-14T05:31:45.293Z,6.00
2022-10-14T05:34:13.858Z,6.10
2022-10-14T05:36:42.281Z,6.10
2022-10-14T05:39:11.648Z,6.10
2022-10-14T05:41:41.705Z,6.20
2022-10-14T05:44:12.481Z,6.20
2022-10-14T05:46:40.654Z,6.20
2022-10-14T05:49:08.785Z,6.30
2022-10-14T05:51:37.296Z,6.40
2022-10-14T05:54:06.251Z,6.50
2022-10-14T05:56:34.424Z,6.50
2022-10-14T05:59:04.274Z,6.50
2022-10-14T06:01:34.799Z,6.60
2022-10-14T06:04:02.934Z,6.60
2022-10-14T06:06:31.133Z,6.50
2022-10-14T06:08:59.267Z,6.50
2022-10-14T06:11:27.398Z,6.50
2022-10-14T06:13:55.554Z,6.40
2022-10-14T06:16:25.239Z,6.40
2022-10-14T06:18:54.614Z,6.40
2022-10-14T06:21:23.685Z,6.50
2022-10-14T06:23:52.106Z,6.50
2022-10-14T06:26:20.595Z,6.60
2022-10-14T06:28:49.237Z,6.60
2022-10-14T06:31:17.432Z,6.70
2022-10-14T06:33:46.999Z,6.80
2022-10-14T06:36:15.172Z,6.90
2022-10-14T06:38:43.308Z,7.10
2022-10-14T06:41:11.641Z,7.20
2022-10-14T06:43:39.997Z,7.30
2022-10-14T06:46:08.337Z,7.40
2022-10-14T06:48:37.594Z,7.50
2022-10-14T06:51:07.579Z,7.60
2022-10-14T06:53:35.668Z,7.70
2022-10-14T06:56:06.935Z,7.80
2022-10-14T06:58:35.483Z,7.70
2022-10-14T07:01:04.956Z,7.70
2022-10-14T07:03:36.912Z,7.60
2022-10-14T07:06:07.766Z,7.60
2022-10-14T07:08:36.484Z,7.60
2022-10-14T07:11:05.155Z,7.70
2022-10-14T07:13:34.231Z,7.70
2022-10-14T07:16:03.331Z,7.80
2022-10-14T07:18:32.335Z,7.80
2022-10-14T07:21:03.706Z,7.80
2022-10-14T07:23:33.434Z,7.90
2022-10-14T07:26:02.154Z,7.90
2022-10-14T07:28:30.765Z,8.10
2022-10-14T07:31:01.046Z,8.20
2022-10-14T07:33:29.169Z,8.30
2022-10-14T07:35:57.570Z,8.40
2022-10-14T07:38:25.790Z,8.50
2022-10-14T07:41:00.309Z,8.70
2022-10-14T07:43:28.719Z,8.80
2022-10-14T07:46:01.093Z,9.00
2022-10-14T07:48:33.007Z,9.20
2022-10-14T07:51:13.314Z,9.30
2022-10-14T07:53:41.673Z,9.40
2022-10-14T07:56:11.402Z,9.40
2022-10-14T07:58:44.212Z,9.40
2022-10-14T08:01:13.088Z,9.40
2022-10-14T08:03:41.234Z,9.50
2022-10-14T08:06:09.600Z,9.50
2022-10-14T08:08:38.088Z,9.50
2022-10-14T08:11:08.731Z,9.60
2022-10-14T08:13:43.287Z,9.60
2022-10-14T08:16:16.537Z,9.70
2022-10-14T08:18:45.548Z,9.90
2022-10-14T08:21:13.986Z,10.00
2022-10-14T08:23:42.282Z,10.20
2022-10-14T08:26:21.744Z,10.30
2022-10-14T08:28:52.866Z,10.60
2022-10-14T08:31:21.775Z,10.90
2022-10-14T08:33:50.687Z,11.10
2022-10-14T08:36:19.699Z,11.20
2022-10-14T08:38:48.829Z,11.20
2022-10-14T08:41:57.361Z,11.40
2022-10-14T08:44:29.720Z,11.60
2022-10-14T08:47:01.297Z,12.10
2022-10-14T08:49:37.218Z,13.30
2022-10-14T08:52:10.029Z,14.70
2022-10-14T08:54:41.738Z,16.20
2022-10-14T08:57:19.287Z,17.30
2022-10-14T08:59:49.266Z,17.90
2022-10-14T09:02:28.762Z,17.40
2022-10-14T09:04:57.833Z,16.60
2022-10-14T09:07:26.551Z,15.70
2022-10-14T09:09:59.791Z,15.00
2022-10-14T09:12:31.806Z,14.50
2022-10-14T09:15:09.448Z,14.10
2022-10-14T09:17:44.285Z,13.70
2022-10-14T09:20:20.669Z,13.40
2022-10-14T09:23:01.783Z,13.20
2022-10-14T09:25:34.832Z,13.10
2022-10-14T09:28:03.262Z,13.30
2022-10-14T09:30:39.669Z,13.40
2022-10-14T09:33:12.245Z,14.00
2022-10-14T09:35:43.329Z,14.90
2022-10-14T09:38:12.594Z,15.60
2022-10-14T09:40:44.694Z,16.10
2022-10-14T09:43:18.268Z,16.80
2022-10-14T09:45:54.308Z,18.40
2022-10-14T09:48:37.550Z,19.60
2022-10-14T09:51:09.506Z,20.10
2022-10-14T09:53:42.292Z,20.20
2022-10-14T09:56:11.577Z,20.60
2022-10-14T09:58:44.586Z,21.50
2022-10-14T10:01:19.560Z,22.20
2022-10-14T10:03:48.529Z,23.20
2022-10-14T10:06:20.355Z,23.50
2022-10-14T10:08:58.124Z,23.90
2022-10-14T10:11:31.060Z,24.20
2022-10-14T10:13:59.197Z,24.60
2022-10-14T10:16:33.034Z,23.60
2022-10-14T10:19:22.284Z,22.10
2022-10-14T10:21:50.866Z,21.30
2022-10-14T10:24:25.928Z,21.20
2022-10-14T10:26:57.250Z,20.90
2022-10-14T10:29:32.334Z,20.40
2022-10-14T10:32:12.473Z,20.80
2022-10-14T10:35:11.865Z,20.90
2022-10-14T10:37:50.671Z,18.90
2022-10-14T10:40:33.602Z,16.90
2022-10-14T10:43:25.769Z,15.90
2022-10-14T10:46:06.239Z,15.30
2022-10-14T10:48:45.705Z,14.90
2022-10-14T10:51:18.279Z,14.40
2022-10-14T10:54:00.954Z,14.40
2022-10-14T10:56:38.838Z,14.40
2022-10-14T10:59:33.605Z,14.30
2022-10-14T11:02:26.264Z,14.20
2022-10-14T11:05:05.572Z,14.10
2022-10-14T11:08:10.220Z,14.00
2022-10-14T11:11:08.188Z,14.20
2022-10-14T11:13:47.013Z,14.50
2022-10-14T11:16:23.609Z,14.60
2022-10-14T11:18:54.242Z,14.60
2022-10-14T11:21:31.807Z,14.50
2022-10-14T11:24:07.624Z,14.40
2022-10-14T11:26:50.476Z,14.40
2022-10-14T11:29:35.358Z,14.50
2022-10-14T11:32:10.515Z,14.70
2022-10-14T11:34:48.022Z,14.70
2022-10-14T11:37:28.259Z,14.60
2022-10-14T11:40:02.877Z,14.40
2022-10-14T11:42:48.888Z,14.30
2022-10-14T11:45:43.279Z,14.20
2022-10-14T11:48:24.223Z,14.00
2022-10-14T11:50:57.410Z,13.90
2022-10-14T11:53:40.757Z,14.00
2022-10-14T11:56:18.810Z,14.20
2022-10-14T11:58:48.874Z,14.30
2022-10-14T12:01:22.275Z,14.50
2022-10-14T12:03:58.819Z,14.40
2022-10-14T12:06:30.874Z,14.30
2022-10-14T12:09:04.545Z,14.30
2022-10-14T12:11:36.827Z,14.30
2022-10-14T12:14:10.637Z,14.50
2022-10-14T12:16:42.645Z,14.40
2022-10-14T12:19:14.007Z,14.40
2022-10-14T12:21:50.698Z,14.30
2022-10-14T12:24:22.805Z,14.20
2022-10-14T12:26:54.244Z,14.20
2022-10-14T12:29:24.654Z,14.30
2022-10-14T12:32:08.797Z,14.30
2022-10-14T12:34:39.431Z,14.30
2022-10-14T12:37:50.122Z,14.30
2022-10-14T12:40:30.953Z,14.20
2022-10-14T12:43:03.455Z,14.30
2022-10-14T12:45:35.042Z,14.30
2022-10-14T12:48:18.794Z,14.30
2022-10-14T12:50:49.038Z,14.20
2022-10-14T12:53:22.545Z,14.20
2022-10-14T12:55:54.394Z,14.10
2022-10-14T12:58:30.025Z,14.10
2022-10-14T13:01:02.941Z,14.10
2022-10-14T13:03:34.468Z,14.10
2022-10-14T13:06:32.346Z,14.00
2022-10-14T13:09:31.076Z,13.80
2022-10-14T13:12:41.373Z,13.80
2022-10-14T13:15:36.026Z,13.70
2022-10-14T13:18:36.771Z,13.60
2022-10-14T13:21:06.109Z,13.50
2022-10-14T13:23:41.037Z,13.50
2022-10-14T13:26:28.381Z,13.60
2022-10-14T13:29:09.158Z,13.60
2022-10-14T13:31:44.971Z,13.60
2022-10-14T13:34:27.930Z,13.60
2022-10-14T13:37:04.550Z,13.60
2022-10-14T13:39:34.930Z,13.60
2022-10-14T13:42:04.261Z,13.70
2022-10-14T13:44:35.874Z,13.70
2022-10-14T13:47:04.430Z,13.80
2022-10-14T13:49:36.976Z,13.70
2022-10-14T13:52:08.019Z,13.80
2022-10-14T13:54:36.546Z,13.70
2022-10-14T14:02:54.498Z,13.70
2022-10-14T14:05:25.862Z,13.60
2022-10-14T14:11:14.459Z,13.50
2022-10-14T14:13:54.443Z,13.50
2022-10-14T14:16:29.893Z,13.50
2022-10-14T14:19:14.328Z,13.40
2022-10-14T14:21:42.516Z,13.40
2022-10-14T14:24:18.786Z,13.20
2022-10-14T14:26:47.460Z,13.20
2022-10-14T14:29:18.760Z,13.20
2022-10-14T14:34:39.607Z,13.00
2022-10-14T14:37:36.822Z,13.00
2022-10-14T14:40:01.587Z,12.90
2022-10-14T14:42:36.078Z,12.90
2022-10-14T14:45:08.002Z,12.90
2022-10-14T14:47:38.049Z,12.80
2022-10-14T14:53:00.251Z,12.80
2022-10-14T14:55:47.011Z,12.70
2022-10-14T14:58:26.904Z,12.70
2022-10-14T15:00:55.795Z,12.70
2022-10-14T15:03:28.147Z,12.60
2022-10-14T15:06:00.307Z,12.60
2022-10-14T15:08:31.268Z,12.60
2022-10-14T15:11:00.513Z,12.60
2022-10-14T15:13:46.232Z,12.60
2022-10-14T15:16:14.494Z,12.50
2022-10-14T15:18:44.161Z,12.40
2022-10-14T15:21:19.472Z,12.40
2022-10-14T15:24:03.276Z,12.30
2022-10-14T15:26:35.079Z,12.30
2022-10-14T15:32:12.962Z,12.20
2022-10-14T15:34:42.962Z,12.20
2022-10-14T15:37:13.885Z,12.10
2022-10-14T15:39:42.016Z,12.10
2022-10-14T15:42:12.826Z,12.10
2022-10-14T15:44:41.025Z,12.00
2022-10-14T15:47:22.477Z,11.90
2022-10-14T15:49:52.418Z,11.90
2022-10-14T15:52:24.370Z,11.90
2022-10-14T15:54:56.449Z,11.90
2022-10-14T15:57:24.796Z,11.80
2022-10-14T15:59:53.759Z,11.80
2022-10-14T16:02:26.398Z,11.80
2022-10-14T16:07:45.784Z,11.60
2022-10-14T16:10:16.629Z,11.60
2022-10-14T16:12:44.872Z,11.50
2022-10-14T16:15:30.126Z,11.50
2022-10-14T16:17:58.238Z,11.40
2022-10-14T16:20:27.774Z,11.40
2022-10-14T16:22:56.270Z,11.40
2022-10-14T16:25:29.847Z,11.40
2022-10-14T16:27:58.694Z,11.30
2022-10-14T16:30:28.115Z,11.30
2022-10-14T16:32:56.273Z,11.30
2022-10-14T16:35:24.972Z,11.20
2022-10-14T16:37:55.062Z,11.20
2022-10-14T16:40:23.573Z,11.20
2022-10-14T16:42:52.497Z,11.20
2022-10-14T16:45:20.754Z,11.10
2022-10-14T16:47:48.897Z,11.10
2022-10-14T16:50:17.494Z,11.00
2022-10-14T16:53:06.002Z,10.90
2022-10-14T16:55:35.710Z,10.90
2022-10-14T16:58:04.667Z,10.80
2022-10-14T17:00:33.645Z,10.80
2022-10-14T17:03:02.220Z,10.70
2022-10-14T17:05:30.686Z,10.70
2022-10-14T17:07:59.179Z,10.70
2022-10-14T17:10:27.305Z,10.80
2022-10-14T17:12:57.533Z,10.80
2022-10-14T17:15:25.996Z,10.80
2022-10-14T17:17:54.347Z,10.80
2022-10-14T17:20:22.994Z,10.90
2022-10-14T17:22:51.466Z,10.90
2022-10-14T17:25:20.121Z,10.90
2022-10-14T17:27:48.217Z,10.90
2022-10-14T17:30:18.759Z,10.90
2022-10-14T17:32:47.403Z,11.00
2022-10-14T17:35:15.613Z,10.90
2022-10-14T17:37:43.840Z,10.90
2022-10-14T17:40:13.179Z,10.90
2022-10-14T17:42:41.854Z,10.90
2022-10-14T17:45:11.322Z,10.90
2022-10-14T17:47:40.954Z,10.80
2022-10-14T17:50:10.946Z,10.80
2022-10-14T17:52:39.257Z,10.70
2022-10-14T17:55:08.539Z,10.70
2022-10-14T17:57:37.330Z,10.70
2022-10-14T18:00:06.255Z,10.60
2022-10-14T18:02:34.870Z,10.60
2022-10-14T18:05:05.128Z,10.60
2022-10-14T18:07:34.779Z,10.50
2022-10-14T18:10:03.380Z,10.50
2022-10-14T18:12:32.326Z,10.40
2022-10-14T18:15:01.839Z,10.30
2022-10-14T18:17:29.914Z,10.30
2022-10-14T18:19:59.691Z,10.30
2022-10-14T18:22:29.834Z,10.20
2022-10-14T18:24:57.973Z,10.20
2022-10-14T18:27:26.344Z,10.20
2022-10-14T18:29:55.109Z,10.10
2022-10-14T18:32:23.613Z,10.10
2022-10-14T18:34:52.193Z,10.00
2022-10-14T18:37:20.560Z,10.00
2022-10-14T18:39:50.025Z,10.00
2022-10-14T18:42:20.826Z,10.00
2022-10-14T18:44:49.470Z,10.00
2022-10-14T18:47:17.603Z,10.00
2022-10-14T18:49:46.237Z,10.10
2022-10-14T18:52:14.472Z,10.10
2022-10-14T18:54:42.738Z,10.00
2022-10-14T18:57:15.033Z,10.00
2022-10-14T18:59:43.196Z,10.00
2022-10-14T19:02:13.826Z,10.00
2022-10-14T19:04:42.168Z,9.90
2022-10-14T19:07:10.764Z,9.90
2022-10-14T19:09:39.248Z,9.90
2022-10-14T19:12:31.251Z,9.80
2022-10-14T19:15:00.804Z,9.80
2022-10-14T19:17:28.931Z,9.70
2022-10-14T19:19:57.469Z,9.80
2022-10-14T19:22:26.067Z,9.80
2022-10-14T19:24:54.289Z,9.70
2022-10-14T19:27:22.857Z,9.70
2022-10-14T19:29:51.637Z,9.70
2022-10-14T19:32:21.108Z,9.60
2022-10-14T19:34:49.307Z,9.60
2022-10-14T19:37:17.597Z,9.60
2022-10-14T19:39:45.753Z,9.70
2022-10-14T19:42:14.388Z,9.70
2022-10-14T19:44:42.919Z,9.60
2022-10-14T19:47:11.291Z,9.60
2022-10-14T19:49:41.024Z,9.50
2022-10-14T19:52:09.279Z,9.40
2022-10-14T19:54:37.486Z,9.40
2022-10-14T19:57:05.865Z,9.30
2022-10-14T19:59:34.313Z,9.30
2022-10-14T20:02:02.421Z,9.30
2022-10-14T20:04:30.561Z,9.30
2022-10-14T20:07:00.695Z,9.30
2022-10-14T20:09:28.887Z,9.30
2022-10-14T20:11:57.145Z,9.30
2022-10-14T20:14:25.784Z,9.30
2022-10-14T20:16:55.936Z,9.20
2022-10-14T20:19:24.269Z,9.20
2022-10-14T20:21:52.779Z,9.20
2022-10-14T20:24:22.255Z,9.40
2022-10-14T20:26:51.756Z,9.60
2022-10-14T20:29:19.922Z,9.90
2022-10-14T20:31:48.022Z,10.10
2022-10-14T20:34:16.825Z,10.10
2022-10-14T20:36:45.362Z,10.10
2022-10-14T20:39:13.436Z,10.00
2022-10-14T20:41:43.832Z,10.10
2022-10-14T20:44:12.074Z,10.10
2022-10-14T20:46:40.152Z,10.20
2022-10-14T20:49:08.407Z,10.20
2022-10-14T20:51:38.413Z,10.20
2022-10-14T20:54:10.983Z,10.20
2022-10-14T20:56:40.502Z,10.10
2022-10-14T20:59:13.224Z,10.10
2022-10-14T21:01:41.818Z,10.00
2022-10-14T21:04:10.382Z,10.10
2022-10-14T21:06:39.383Z,10.10
2022-10-14T21:09:08.555Z,10.10
2022-10-14T21:11:36.804Z,10.20
2022-10-14T21:14:05.105Z,10.10
2022-10-14T21:16:36.285Z,10.20
2022-10-14T21:19:06.610Z,10.20
2022-10-14T21:21:38.162Z,10.20
2022-10-14T21:24:07.049Z,10.10
2022-10-14T21:26:35.373Z,10.10
2022-10-14T21:29:04.263Z,10.10
2022-10-14T21:31:34.741Z,10.00
2022-10-14T21:34:06.453Z,10.00
2022-10-14T21:36:35.307Z,10.00
2022-10-14T21:39:08.041Z,9.90
2022-10-14T21:41:36.959Z,9.90
2022-10-14T21:44:05.670Z,9.90
2022-10-14T21:46:35.794Z,9.90
2022-10-14T21:49:04.937Z,9.80
2022-10-14T21:51:33.815Z,9.80
2022-10-14T21:54:01.925Z,9.80
2022-10-14T21:56:30.897Z,9.90
2022-10-14T21:58:59.466Z,9.90
2022-10-14T22:01:29.963Z,10.00
2022-10-14T22:04:04.036Z,10.00
2022-10-14T22:06:33.456Z,10.00
2022-10-14T22:09:03.435Z,10.00
2022-10-14T22:11:35.056Z,9.90
2022-10-14T22:14:05.781Z,10.00
2022-10-14T22:16:34.586Z,10.00
2022-10-14T22:19:07.632Z,10.00
2022-10-14T22:21:37.930Z,10.10
2022-10-14T22:26:41.565Z,10.10
2022-10-14T22:29:14.201Z,10.10
2022-10-14T22:31:42.394Z,10.20
2022-10-14T22:34:13.764Z,10.20
2022-10-14T22:36:42.786Z,10.30
2022-10-14T22:39:14.119Z,10.40
2022-10-14T22:41:42.230Z,10.40
2022-10-14T22:44:11.174Z,10.40
2022-10-14T22:46:40.902Z,10.40
2022-10-14T22:49:09.052Z,10.40
2022-10-14T22:51:41.436Z,10.40
2022-10-14T22:54:10.210Z,10.40
2022-10-14T22:56:38.862Z,10.40
2022-10-14T22:59:09.123Z,10.30
2022-10-14T23:01:37.834Z,10.30
2022-10-14T23:04:06.284Z,10.30
2022-10-14T23:06:34.817Z,10.40
2022-10-14T23:09:04.822Z,10.40
2022-10-14T23:11:33.409Z,10.40
2022-10-14T23:14:06.146Z,10.50
2022-10-14T23:16:35.837Z,10.50
2022-10-14T23:19:05.010Z,10.50
2022-10-14T23:21:34.547Z,10.50
2022-10-14T23:24:06.863Z,10.50
2022-10-14T23:26:36.162Z,10.50
2022-10-14T23:29:06.500Z,10.50
2022-10-14T23:31:36.636Z,10.50
2022-10-14T23:34:07.266Z,10.50
2022-10-14T23:36:35.627Z,10.40
2022-10-14T23:39:06.011Z,10.40
2022-10-14T23:41:34.705Z,10.30
2022-10-14T23:44:03.233Z,10.30
2022-10-14T23:46:31.838Z,10.30
2022-10-14T23:49:07.992Z,10.30
2022-10-14T23:51:48.513Z,10.30
2022-10-14T23:54:18.561Z,10.20
2022-10-14T23:56:46.700Z,10.20
2022-10-14T23:59:15.409Z,10.20
